createdAt,value
2018-02-22T00:00:01.547Z,968.71
2018-02-22T00:01:01.537Z,968.65
2018-02-22T00:02:01.520Z,968.62
2018-02-22T00:03:01.495Z,968.60
2018-02-22T00:04:01.479Z,968.65
2018-02-22T00:05:01.461Z,968.64
2018-02-22T00:06:01.448Z,968.71
2018-02-22T00:07:01.430Z,968.62
2018-02-22T00:08:01.405Z,968.59
2018-02-22T00:09:01.390Z,968.68
2018-02-22T00:10:01.379Z,968.64
2018-02-22T00:11:01.352Z,968.61
2018-02-22T00:12:01.336Z,968.60
2018-02-22T00:13:01.317Z,968.57
2018-02-22T00:14:01.299Z,968.58
2018-02-22T00:15:01.282Z,968.62
2018-02-22T00:16:01.269Z,968.73
2018-02-22T00:17:01.252Z,968.69
2018-02-22T00:18:01.227Z,968.55
2018-02-22T00:19:01.208Z,968.68
2018-02-22T00:20:01.193Z,968.63
2018-02-22T00:21:01.183Z,968.56
2018-02-22T00:22:01.157Z,968.60
2018-02-22T00:23:01.143Z,968.60
2018-02-22T00:24:01.120Z,968.51
2018-02-22T00:25:01.102Z,968.65
2018-02-22T00:26:01.086Z,968.57
2018-02-22T00:27:01.068Z,968.66
2018-02-22T00:28:01.047Z,968.61
2018-02-22T00:29:01.030Z,968.44
2018-02-22T00:30:01.016Z,968.48
2018-02-22T00:31:00.993Z,968.53
2018-02-22T00:32:01.014Z,968.56
2018-02-22T00:33:00.964Z,968.49
2018-02-22T00:34:00.946Z,968.47
2018-02-22T00:35:00.922Z,968.50
2018-02-22T00:36:00.903Z,968.60
2018-02-22T00:37:00.893Z,968.46
2018-02-22T00:38:00.870Z,968.60
2018-02-22T00:39:00.852Z,968.56
2018-02-22T00:40:00.832Z,968.45
2018-02-22T00:41:00.816Z,968.43
2018-02-22T00:42:00.803Z,968.49
2018-02-22T00:43:00.778Z,968.43
2018-02-22T00:44:00.760Z,968.54
2018-02-22T00:45:00.748Z,968.44
2018-02-22T00:46:00.723Z,968.42
2018-02-22T00:47:00.707Z,968.42
2018-02-22T00:48:00.688Z,968.46
2018-02-22T00:49:00.671Z,968.50
2018-02-22T00:50:00.653Z,968.45
2018-02-22T00:51:00.639Z,968.39
2018-02-22T00:52:00.625Z,968.34
2018-02-22T00:53:00.602Z,968.36
2018-02-22T00:54:00.581Z,968.34
2018-02-22T00:55:00.566Z,968.34
2018-02-22T00:56:00.549Z,968.33
2018-02-22T00:57:00.526Z,968.33
2018-02-22T00:58:00.509Z,968.29
2018-02-22T00:59:00.493Z,968.30
2018-02-22T01:00:00.472Z,968.33
2018-02-22T01:01:00.455Z,968.25
2018-02-22T01:02:00.435Z,968.32
2018-02-22T01:03:00.423Z,968.24
2018-02-22T01:04:00.400Z,968.28
2018-02-22T01:05:00.384Z,968.38
2018-02-22T01:06:00.365Z,968.27
2018-02-22T01:07:00.347Z,968.27
2018-02-22T01:08:00.331Z,968.25
2018-02-22T01:09:00.314Z,968.32
2018-02-22T01:10:00.295Z,968.30
2018-02-22T01:11:00.275Z,968.28
2018-02-22T01:12:00.260Z,968.28
2018-02-22T01:13:00.241Z,968.26
2018-02-22T01:14:00.221Z,968.23
2018-02-22T01:15:00.206Z,968.21
2018-02-22T01:16:00.187Z,968.31
2018-02-22T01:17:00.168Z,968.25
2018-02-22T01:18:00.151Z,968.32
2018-02-22T01:19:00.132Z,968.25
2018-02-22T01:20:00.120Z,968.31
2018-02-22T01:21:00.096Z,968.25
2018-02-22T01:22:00.080Z,968.27
2018-02-22T01:23:00.067Z,968.21
2018-02-22T01:24:00.046Z,968.22
2018-02-22T01:25:00.028Z,968.29
2018-02-22T01:26:00.009Z,968.23
2018-02-22T01:26:59.989Z,968.21
2018-02-22T01:27:59.972Z,968.15
2018-02-22T01:28:59.959Z,968.11
2018-02-22T01:29:59.936Z,968.16
2018-02-22T01:30:59.916Z,968.12
2018-02-22T01:31:59.901Z,968.21
2018-02-22T01:32:59.882Z,968.14
2018-02-22T01:33:59.863Z,968.10
2018-02-22T01:34:59.844Z,968.09
2018-02-22T01:35:59.828Z,968.17
2018-02-22T01:36:59.809Z,968.15
2018-02-22T01:37:59.797Z,968.04
2018-02-22T01:38:59.780Z,968.06
2018-02-22T01:39:59.754Z,968.08
2018-02-22T01:40:59.736Z,968.06
2018-02-22T01:41:59.731Z,968.08
2018-02-22T01:42:59.701Z,968.12
2018-02-22T01:43:59.683Z,968.13
2018-02-22T01:44:59.664Z,968.00
2018-02-22T01:45:59.647Z,967.98
2018-02-22T01:46:59.633Z,968.08
2018-02-22T01:47:59.610Z,968.00
2018-02-22T01:48:59.591Z,968.00
2018-02-22T01:49:59.573Z,968.04
2018-02-22T01:50:59.554Z,968.14
2018-02-22T01:51:59.538Z,968.00
2018-02-22T01:52:59.523Z,967.94
2018-02-22T01:53:59.503Z,967.99
2018-02-22T01:54:59.481Z,968.03
2018-02-22T01:55:59.469Z,967.99
2018-02-22T01:56:59.445Z,968.06
2018-02-22T01:57:59.428Z,968.06
2018-02-22T01:58:59.408Z,968.03
2018-02-22T01:59:59.390Z,968.02
2018-02-22T02:00:59.378Z,968.04
2018-02-22T02:01:59.356Z,968.01
2018-02-22T02:02:59.337Z,968.08
2018-02-22T02:03:59.318Z,967.92
2018-02-22T02:04:59.298Z,968.04
2018-02-22T02:05:59.281Z,968.04
2018-02-22T02:06:59.264Z,968.02
2018-02-22T02:07:59.241Z,968.03
2018-02-22T02:08:59.226Z,968.03
2018-02-22T02:09:59.206Z,968.01
2018-02-22T02:10:59.189Z,968.07
2018-02-22T02:11:59.168Z,968.00
2018-02-22T02:12:59.151Z,968.03
2018-02-22T02:13:59.134Z,968.00
2018-02-22T02:14:59.114Z,968.08
2018-02-22T02:15:59.096Z,968.00
2018-02-22T02:16:59.077Z,967.93
2018-02-22T02:17:59.060Z,967.87
2018-02-22T02:18:59.047Z,967.93
2018-02-22T02:19:59.028Z,967.90
2018-02-22T02:20:59.005Z,967.80
2018-02-22T02:21:58.988Z,967.92
2018-02-22T02:22:58.967Z,967.94
2018-02-22T02:23:58.950Z,967.96
2018-02-22T02:24:58.937Z,967.78
2018-02-22T02:25:58.912Z,967.92
2018-02-22T02:26:58.899Z,967.80
2018-02-22T02:27:58.874Z,967.88
2018-02-22T02:28:58.857Z,967.88
2018-02-22T02:29:58.837Z,967.79
2018-02-22T02:30:58.823Z,967.86
2018-02-22T02:31:58.810Z,967.97
2018-02-22T02:32:58.786Z,967.86
2018-02-22T02:33:58.765Z,967.74
2018-02-22T02:34:58.748Z,967.80
2018-02-22T02:35:58.735Z,967.76
2018-02-22T02:36:58.719Z,967.75
2018-02-22T02:37:58.689Z,967.81
2018-02-22T02:38:58.677Z,967.81
2018-02-22T02:39:58.649Z,967.72
2018-02-22T02:40:58.644Z,967.84
2018-02-22T02:41:58.622Z,967.77
2018-02-22T02:42:58.599Z,967.74
2018-02-22T02:43:58.577Z,967.81
2018-02-22T02:44:58.560Z,967.82
2018-02-22T02:45:58.541Z,967.69
2018-02-22T02:46:58.518Z,967.81
2018-02-22T02:47:58.500Z,967.77
2018-02-22T02:48:58.482Z,967.70
2018-02-22T02:49:58.464Z,967.75
2018-02-22T02:50:58.446Z,967.72
2018-02-22T02:51:58.431Z,967.82
2018-02-22T02:52:58.414Z,967.77
2018-02-22T02:53:58.395Z,967.69
2018-02-22T02:54:58.371Z,967.72
2018-02-22T02:55:58.357Z,967.71
2018-02-22T02:56:58.335Z,967.64
2018-02-22T02:57:58.314Z,967.69
2018-02-22T02:58:58.294Z,967.68
2018-02-22T02:59:58.277Z,967.71
2018-02-22T03:00:58.257Z,967.59
2018-02-22T03:01:58.240Z,967.61
2018-02-22T03:02:58.232Z,967.70
2018-02-22T03:03:58.202Z,967.63
2018-02-22T03:04:58.189Z,967.64
2018-02-22T03:05:58.167Z,967.61
2018-02-22T03:06:58.147Z,967.58
2018-02-22T03:07:58.127Z,967.60
2018-02-22T03:08:58.112Z,967.69
2018-02-22T03:09:58.091Z,967.56
2018-02-22T03:10:58.070Z,967.61
2018-02-22T03:11:58.051Z,967.51
2018-02-22T03:12:58.033Z,967.65
2018-02-22T03:13:58.021Z,967.56
2018-02-22T03:14:58.000Z,967.50
2018-02-22T03:15:57.978Z,967.48
2018-02-22T03:16:57.958Z,967.53
2018-02-22T03:17:57.941Z,967.61
2018-02-22T03:18:57.921Z,967.46
2018-02-22T03:19:57.901Z,967.52
2018-02-22T03:20:57.890Z,967.45
2018-02-22T03:21:57.865Z,967.45
2018-02-22T03:22:57.854Z,967.50
2018-02-22T03:23:57.830Z,967.43
2018-02-22T03:24:57.815Z,967.38
2018-02-22T03:25:57.790Z,967.57
2018-02-22T03:26:57.773Z,967.37
2018-02-22T03:27:57.763Z,967.38
2018-02-22T03:28:57.734Z,967.38
2018-02-22T03:29:57.719Z,967.41
2018-02-22T03:30:57.696Z,967.50
2018-02-22T03:31:57.695Z,967.41
2018-02-22T03:32:57.665Z,967.32
2018-02-22T03:33:57.640Z,967.37
2018-02-22T03:34:57.628Z,967.32
2018-02-22T03:35:57.604Z,967.38
2018-02-22T03:36:57.589Z,967.33
2018-02-22T03:37:57.575Z,967.28
2018-02-22T03:38:57.548Z,967.42
2018-02-22T03:39:57.529Z,967.29
2018-02-22T03:40:57.510Z,967.35
2018-02-22T03:41:57.497Z,967.36
2018-02-22T03:42:57.470Z,967.29
2018-02-22T03:43:57.454Z,967.32
2018-02-22T03:44:57.441Z,967.27
2018-02-22T03:45:57.420Z,967.27
2018-02-22T03:46:57.401Z,967.23
2018-02-22T03:47:57.386Z,967.19
2018-02-22T03:48:57.364Z,967.16
2018-02-22T03:49:57.341Z,967.20
2018-02-22T03:50:57.323Z,967.28
2018-02-22T03:51:57.307Z,967.17
2018-02-22T03:52:57.291Z,967.20
2018-02-22T03:53:57.283Z,967.23
2018-02-22T03:54:57.247Z,967.21
2018-02-22T03:55:57.228Z,967.24
2018-02-22T03:56:57.210Z,967.14
2018-02-22T03:57:57.193Z,967.18
2018-02-22T03:58:57.171Z,967.20
2018-02-22T03:59:57.160Z,967.14
2018-02-22T04:00:57.137Z,967.13
2018-02-22T04:01:57.116Z,967.24
2018-02-22T04:02:57.098Z,967.24
2018-02-22T04:03:57.087Z,967.08
2018-02-22T04:04:57.066Z,967.13
2018-02-22T04:05:57.044Z,967.11
2018-02-22T04:06:57.029Z,967.07
2018-02-22T04:07:57.006Z,967.11
2018-02-22T04:08:56.985Z,967.09
2018-02-22T04:09:56.968Z,967.10
2018-02-22T04:10:56.949Z,967.11
2018-02-22T04:11:56.930Z,967.16
2018-02-22T04:12:56.921Z,967.18
2018-02-22T04:13:56.899Z,967.23
2018-02-22T04:14:56.872Z,967.14
2018-02-22T04:15:56.856Z,967.13
2018-02-22T04:16:56.836Z,967.17
2018-02-22T04:17:56.821Z,967.11
2018-02-22T04:18:56.806Z,967.27
2018-02-22T04:19:56.782Z,967.04
2018-02-22T04:20:56.763Z,967.17
2018-02-22T04:21:56.750Z,967.24
2018-02-22T04:22:56.727Z,967.14
2018-02-22T04:23:56.711Z,967.27
2018-02-22T04:24:56.689Z,967.06
2018-02-22T04:25:56.670Z,967.22
2018-02-22T04:26:56.648Z,967.15
2018-02-22T04:27:56.631Z,967.10
2018-02-22T04:28:56.613Z,967.09
2018-02-22T04:29:56.594Z,967.04
2018-02-22T04:30:56.582Z,967.17
2018-02-22T04:31:56.563Z,967.04
2018-02-22T04:32:56.539Z,967.12
2018-02-22T04:33:56.520Z,967.10
2018-02-22T04:34:56.503Z,967.13
2018-02-22T04:35:56.488Z,967.17
2018-02-22T04:36:56.472Z,967.11
2018-02-22T04:37:56.446Z,967.17
2018-02-22T04:38:56.433Z,967.11
2018-02-22T04:39:56.409Z,967.07
2018-02-22T04:40:56.399Z,967.14
2018-02-22T04:41:56.375Z,967.00
2018-02-22T04:42:56.361Z,967.05
2018-02-22T04:43:56.333Z,967.10
2018-02-22T04:44:56.317Z,967.12
2018-02-22T04:45:56.300Z,967.07
2018-02-22T04:46:56.278Z,967.10
2018-02-22T04:47:56.257Z,967.02
2018-02-22T04:48:56.241Z,967.03
2018-02-22T04:49:56.227Z,967.17
2018-02-22T04:50:56.203Z,967.03
2018-02-22T04:51:56.192Z,967.09
2018-02-22T04:52:56.166Z,967.08
2018-02-22T04:53:56.148Z,967.02
2018-02-22T04:54:56.134Z,967.14
2018-02-22T04:55:56.118Z,967.14
2018-02-22T04:56:56.098Z,967.19
2018-02-22T04:57:56.073Z,967.11
2018-02-22T04:58:56.057Z,967.10
2018-02-22T04:59:56.039Z,967.14
2018-02-22T05:00:56.016Z,967.06
2018-02-22T05:01:55.997Z,967.07
2018-02-22T05:02:55.985Z,967.21
2018-02-22T05:03:55.959Z,967.07
2018-02-22T05:04:55.942Z,967.28
2018-02-22T05:05:55.931Z,967.09
2018-02-22T05:06:55.905Z,967.04
2018-02-22T05:07:55.885Z,967.12
2018-02-22T05:08:55.876Z,967.10
2018-02-22T05:09:55.851Z,967.13
2018-02-22T05:10:55.829Z,967.10
2018-02-22T05:11:55.810Z,967.17
2018-02-22T05:12:55.798Z,967.10
2018-02-22T05:13:55.774Z,967.15
2018-02-22T05:14:55.754Z,967.22
2018-02-22T05:15:55.740Z,967.07
2018-02-22T05:16:55.722Z,967.11
2018-02-22T05:17:55.706Z,967.20
2018-02-22T05:18:55.680Z,967.13
2018-02-22T05:19:55.676Z,967.15
2018-02-22T05:20:55.652Z,967.19
2018-02-22T05:21:55.625Z,967.13
2018-02-22T05:22:55.605Z,967.15
2018-02-22T05:23:55.592Z,967.09
2018-02-22T05:24:55.569Z,967.04
2018-02-22T05:25:55.552Z,967.06
2018-02-22T05:26:55.534Z,967.16
2018-02-22T05:27:55.516Z,967.20
2018-02-22T05:28:55.499Z,967.13
2018-02-22T05:29:55.479Z,967.16
2018-02-22T05:30:55.459Z,967.13
2018-02-22T05:31:55.434Z,967.10
2018-02-22T05:32:55.421Z,967.19
2018-02-22T05:33:55.398Z,967.05
2018-02-22T05:34:55.384Z,967.09
2018-02-22T05:35:55.366Z,967.09
2018-02-22T05:36:55.391Z,967.04
2018-02-22T05:37:55.323Z,967.06
2018-02-22T05:38:55.306Z,967.09
2018-02-22T05:39:55.284Z,967.13
2018-02-22T05:40:55.266Z,967.13
2018-02-22T05:41:55.248Z,967.12
2018-02-22T05:42:55.227Z,967.20
2018-02-22T05:43:55.215Z,967.10
2018-02-22T05:44:55.190Z,967.16
2018-02-22T05:45:55.183Z,967.19
2018-02-22T05:46:55.154Z,967.15
2018-02-22T05:47:55.145Z,967.15
2018-02-22T05:48:55.122Z,967.10
2018-02-22T05:49:55.097Z,967.13
2018-02-22T05:50:55.078Z,967.25
2018-02-22T05:51:55.058Z,967.17
2018-02-22T05:52:55.044Z,967.27
2018-02-22T05:53:55.027Z,967.19
2018-02-22T05:54:55.002Z,967.44
2018-02-22T05:55:54.982Z,967.19
2018-02-22T05:56:54.964Z,967.34
2018-02-22T05:57:54.945Z,967.35
2018-02-22T05:58:54.926Z,967.19
2018-02-22T05:59:54.905Z,967.30
2018-02-22T06:00:54.888Z,967.27
2018-02-22T06:01:54.874Z,967.40
2018-02-22T06:02:54.852Z,967.23
2018-02-22T06:03:54.835Z,967.23
2018-02-22T06:04:54.812Z,967.25
2018-02-22T06:05:54.796Z,967.16
2018-02-22T06:06:54.774Z,967.16
2018-02-22T06:07:54.752Z,967.33
2018-02-22T06:08:54.740Z,967.24
2018-02-22T06:09:54.718Z,967.20
2018-02-22T06:10:54.695Z,967.23
2018-02-22T06:11:54.676Z,967.36
2018-02-22T06:12:54.658Z,967.09
2018-02-22T06:13:54.638Z,967.23
2018-02-22T06:14:54.633Z,967.25
2018-02-22T06:15:54.604Z,967.18
2018-02-22T06:16:54.581Z,967.18
2018-02-22T06:17:54.567Z,967.26
2018-02-22T06:18:54.546Z,967.46
2018-02-22T06:19:54.528Z,967.31
2018-02-22T06:20:54.505Z,967.37
2018-02-22T06:21:54.486Z,967.35
2018-02-22T06:22:54.470Z,967.26
2018-02-22T06:23:54.452Z,967.27
2018-02-22T06:24:54.424Z,967.20
2018-02-22T06:25:54.409Z,967.31
2018-02-22T06:26:54.392Z,967.28
2018-02-22T06:27:54.366Z,967.24
2018-02-22T06:28:54.349Z,967.35
2018-02-22T06:29:54.331Z,967.13
2018-02-22T06:30:54.308Z,967.16
2018-02-22T06:31:54.295Z,967.21
2018-02-22T06:32:54.321Z,967.25
2018-02-22T06:33:54.255Z,967.18
2018-02-22T06:34:54.230Z,967.40
2018-02-22T06:35:54.216Z,967.16
2018-02-22T06:36:54.193Z,967.23
2018-02-22T06:37:54.174Z,967.14
2018-02-22T06:38:54.152Z,967.31
2018-02-22T06:39:54.133Z,967.20
2018-02-22T06:40:54.124Z,967.19
2018-02-22T06:41:54.094Z,967.10
2018-02-22T06:42:54.080Z,967.26
2018-02-22T06:43:54.063Z,967.18
2018-02-22T06:44:54.047Z,967.22
2018-02-22T06:45:54.024Z,967.11
2018-02-22T06:46:53.999Z,967.09
2018-02-22T06:47:53.983Z,967.14
2018-02-22T06:48:53.963Z,967.12
2018-02-22T06:49:53.943Z,967.10
2018-02-22T06:50:53.928Z,967.16
2018-02-22T06:51:53.903Z,967.20
2018-02-22T06:52:53.885Z,967.30
2018-02-22T06:53:53.865Z,967.33
2018-02-22T06:54:53.846Z,967.31
2018-02-22T06:55:53.832Z,967.31
2018-02-22T06:56:53.807Z,967.21
2018-02-22T06:57:53.816Z,967.13
2018-02-22T06:58:53.768Z,967.29
2018-02-22T06:59:53.751Z,967.25
2018-02-22T07:00:53.729Z,967.14
2018-02-22T07:01:53.712Z,967.21
2018-02-22T07:02:53.694Z,967.05
2018-02-22T07:03:53.677Z,967.09
2018-02-22T07:04:53.657Z,967.16
2018-02-22T07:05:53.634Z,967.06
2018-02-22T07:06:53.618Z,967.14
2018-02-22T07:07:53.594Z,967.08
2018-02-22T07:08:53.580Z,967.08
2018-02-22T07:09:53.557Z,967.05
2018-02-22T07:10:53.543Z,967.21
2018-02-22T07:11:53.524Z,967.14
2018-02-22T07:12:53.498Z,967.13
2018-02-22T07:13:53.529Z,967.08
2018-02-22T07:14:53.510Z,967.21
2018-02-22T07:15:53.447Z,967.33
2018-02-22T07:16:53.421Z,967.20
2018-02-22T07:17:53.404Z,967.16
2018-02-22T07:18:53.388Z,967.02
2018-02-22T07:19:53.364Z,967.15
2018-02-22T07:20:53.345Z,967.36
2018-02-22T07:21:53.326Z,967.16
2018-02-22T07:22:53.307Z,967.28
2018-02-22T07:23:53.297Z,967.28
2018-02-22T07:24:53.273Z,967.24
2018-02-22T07:25:53.250Z,967.32
2018-02-22T07:26:53.232Z,967.12
2018-02-22T07:27:53.215Z,967.28
2018-02-22T07:28:53.191Z,967.16
2018-02-22T07:29:53.176Z,967.24
2018-02-22T07:30:53.150Z,967.28
2018-02-22T07:31:53.130Z,967.38
2018-02-22T07:32:53.120Z,967.23
2018-02-22T07:33:53.094Z,967.32
2018-02-22T07:34:53.075Z,967.25
2018-02-22T07:35:53.053Z,967.28
2018-02-22T07:36:53.042Z,967.25
2018-02-22T07:37:53.022Z,967.39
2018-02-22T07:38:52.996Z,967.27
2018-02-22T07:39:52.976Z,967.21
2018-02-22T07:40:52.959Z,967.24
2018-02-22T07:41:52.937Z,967.25
2018-02-22T07:42:52.925Z,967.26
2018-02-22T07:43:52.898Z,967.22
2018-02-22T07:44:52.879Z,967.19
2018-02-22T07:45:52.866Z,967.25
2018-02-22T07:46:52.841Z,967.26
2018-02-22T07:47:52.821Z,967.26
2018-02-22T07:48:52.811Z,967.32
2018-02-22T07:49:52.786Z,967.29
2018-02-22T07:50:52.764Z,967.33
2018-02-22T07:51:52.744Z,967.31
2018-02-22T07:52:52.731Z,967.49
2018-02-22T07:53:52.709Z,967.42
2018-02-22T07:54:52.692Z,967.23
2018-02-22T07:55:52.669Z,967.57
2018-02-22T07:56:52.655Z,967.30
2018-02-22T07:57:52.634Z,967.34
2018-02-22T07:58:52.611Z,967.33
2018-02-22T07:59:52.592Z,967.29
2018-02-22T08:00:52.576Z,967.41
2018-02-22T08:01:52.553Z,967.30
2018-02-22T08:02:52.532Z,967.21
2018-02-22T08:03:52.520Z,967.35
2018-02-22T08:04:52.495Z,967.27
2018-02-22T08:05:52.476Z,967.19
2018-02-22T08:06:52.455Z,967.30
2018-02-22T08:07:52.443Z,967.33
2018-02-22T08:08:52.419Z,967.27
2018-02-22T08:09:52.405Z,967.24
2018-02-22T08:10:52.381Z,967.23
2018-02-22T08:11:52.363Z,967.33
2018-02-22T08:12:52.345Z,967.55
2018-02-22T08:13:52.326Z,967.32
2018-02-22T08:14:52.302Z,967.51
2018-02-22T08:15:52.283Z,967.37
2018-02-22T08:16:52.270Z,967.35
2018-02-22T08:17:52.245Z,967.33
2018-02-22T08:18:52.226Z,967.26
2018-02-22T08:19:52.211Z,967.34
2018-02-22T08:20:52.198Z,967.29
2018-02-22T08:21:52.172Z,967.18
2018-02-22T08:22:52.147Z,967.33
2018-02-22T08:23:52.128Z,967.26
2018-02-22T08:24:52.110Z,967.27
2018-02-22T08:25:52.095Z,967.30
2018-02-22T08:26:52.069Z,967.18
2018-02-22T08:27:52.064Z,967.30
2018-02-22T08:28:52.038Z,967.32
2018-02-22T08:29:52.012Z,967.30
2018-02-22T08:30:51.999Z,967.19
2018-02-22T08:31:51.974Z,967.21
2018-02-22T08:32:51.957Z,967.21
2018-02-22T08:33:51.939Z,967.31
2018-02-22T08:34:51.922Z,967.14
2018-02-22T08:35:51.897Z,967.24
2018-02-22T08:36:51.884Z,967.36
2018-02-22T08:37:51.860Z,967.23
2018-02-22T08:38:51.838Z,967.19
2018-02-22T08:39:51.820Z,967.26
2018-02-22T08:40:51.800Z,967.24
2018-02-22T08:41:51.780Z,967.15
2018-02-22T08:42:51.764Z,967.11
2018-02-22T08:43:51.742Z,967.06
2018-02-22T08:44:51.722Z,967.11
2018-02-22T08:45:51.702Z,967.16
2018-02-22T08:46:51.692Z,967.12
2018-02-22T08:47:51.665Z,967.12
2018-02-22T08:48:51.645Z,967.16
2018-02-22T08:49:51.626Z,967.26
2018-02-22T08:50:51.606Z,967.38
2018-02-22T08:51:51.587Z,967.17
2018-02-22T08:52:51.576Z,967.19
2018-02-22T08:53:51.559Z,967.23
2018-02-22T08:54:51.530Z,967.13
2018-02-22T08:55:51.519Z,967.18
2018-02-22T08:56:51.498Z,967.26
2018-02-22T08:57:51.478Z,967.29
2018-02-22T08:58:51.456Z,967.25
2018-02-22T08:59:51.434Z,967.12
2018-02-22T09:00:51.415Z,967.16
2018-02-22T09:01:51.395Z,967.28
2018-02-22T09:02:51.377Z,967.15
2018-02-22T09:03:51.359Z,967.18
2018-02-22T09:04:51.337Z,967.23
2018-02-22T09:05:51.318Z,967.11
2018-02-22T09:06:51.299Z,967.18
2018-02-22T09:07:51.279Z,967.11
2018-02-22T09:08:51.260Z,967.42
2018-02-22T09:09:51.248Z,967.33
2018-02-22T09:10:51.222Z,967.41
2018-02-22T09:11:51.204Z,967.25
2018-02-22T09:12:51.184Z,967.16
2018-02-22T09:13:51.165Z,967.23
2018-02-22T09:14:51.150Z,967.20
2018-02-22T09:15:51.133Z,967.29
2018-02-22T09:16:51.113Z,967.27
2018-02-22T09:17:51.089Z,967.29
2018-02-22T09:18:51.072Z,967.22
2018-02-22T09:19:51.049Z,967.12
2018-02-22T09:20:51.036Z,967.23
2018-02-22T09:21:51.009Z,967.29
2018-02-22T09:22:50.989Z,967.23
2018-02-22T09:23:50.969Z,967.25
2018-02-22T09:24:50.952Z,967.26
2018-02-22T09:25:50.931Z,967.20
2018-02-22T09:26:50.911Z,967.14
2018-02-22T09:27:50.893Z,967.19
2018-02-22T09:28:50.878Z,967.24
2018-02-22T09:29:50.855Z,967.49
2018-02-22T09:30:50.841Z,967.25
2018-02-22T09:31:50.814Z,967.23
2018-02-22T09:32:50.797Z,967.29
2018-02-22T09:33:50.782Z,967.19
2018-02-22T09:34:50.764Z,967.14
2018-02-22T09:35:50.737Z,967.33
2018-02-22T09:36:50.718Z,967.48
2018-02-22T09:37:50.701Z,967.33
2018-02-22T09:38:50.679Z,967.19
2018-02-22T09:39:50.659Z,967.36
2018-02-22T09:40:50.645Z,967.24
2018-02-22T09:41:50.625Z,967.23
2018-02-22T09:42:50.601Z,967.23
2018-02-22T09:43:50.582Z,967.29
2018-02-22T09:44:50.568Z,967.27
2018-02-22T09:45:50.550Z,967.26
2018-02-22T09:46:50.528Z,967.48
2018-02-22T09:47:50.505Z,967.36
2018-02-22T09:48:50.492Z,967.31
2018-02-22T09:49:50.466Z,967.27
2018-02-22T09:50:50.445Z,967.20
2018-02-22T09:51:50.427Z,967.26
2018-02-22T09:52:50.407Z,967.31
2018-02-22T09:53:50.387Z,967.23
2018-02-22T09:54:50.373Z,967.34
2018-02-22T09:55:50.354Z,967.27
2018-02-22T09:56:50.331Z,967.22
2018-02-22T09:57:50.311Z,967.31
2018-02-22T09:58:50.289Z,967.34
2018-02-22T09:59:50.273Z,967.43
2018-02-22T10:00:50.257Z,967.35
2018-02-22T10:01:50.238Z,967.32
2018-02-22T10:02:50.210Z,967.29
2018-02-22T10:03:50.193Z,967.28
2018-02-22T10:04:50.174Z,967.25
2018-02-22T10:05:50.154Z,967.27
2018-02-22T10:06:50.140Z,967.25
2018-02-22T10:07:50.116Z,967.37
2018-02-22T10:08:50.096Z,967.46
2018-02-22T10:09:50.086Z,967.27
2018-02-22T10:10:50.058Z,967.30
2018-02-22T10:11:50.037Z,967.43
2018-02-22T10:12:50.020Z,967.25
2018-02-22T10:13:49.999Z,967.31
2018-02-22T10:14:49.980Z,967.33
2018-02-22T10:15:49.960Z,967.29
2018-02-22T10:16:49.946Z,967.32
2018-02-22T10:17:49.922Z,967.36
2018-02-22T10:18:49.902Z,967.34
2018-02-22T10:19:49.890Z,967.40
2018-02-22T10:20:49.864Z,967.41
2018-02-22T10:21:49.848Z,967.30
2018-02-22T10:22:49.827Z,967.26
2018-02-22T10:23:49.812Z,967.41
2018-02-22T10:24:49.785Z,967.44
2018-02-22T10:25:49.765Z,967.39
2018-02-22T10:26:49.749Z,967.31
2018-02-22T10:27:49.734Z,967.32
2018-02-22T10:28:49.718Z,967.28
2018-02-22T10:29:49.698Z,967.37
2018-02-22T10:30:49.672Z,967.66
2018-02-22T10:31:49.659Z,967.44
2018-02-22T10:32:49.635Z,967.43
2018-02-22T10:33:49.615Z,967.33
2018-02-22T10:34:49.602Z,967.39
2018-02-22T10:35:49.576Z,967.41
2018-02-22T10:36:49.559Z,967.34
2018-02-22T10:37:49.540Z,967.36
2018-02-22T10:38:49.524Z,967.47
2018-02-22T10:39:49.499Z,967.41
2018-02-22T10:40:49.487Z,967.39
2018-02-22T10:41:49.463Z,967.45
2018-02-22T10:42:49.446Z,967.35
2018-02-22T10:43:49.424Z,967.40
2018-02-22T10:44:49.427Z,967.37
2018-02-22T10:45:49.387Z,967.46
2018-02-22T10:46:49.367Z,967.50
2018-02-22T10:47:49.352Z,967.44
2018-02-22T10:48:49.328Z,967.38
2018-02-22T10:49:49.311Z,967.42
2018-02-22T10:50:49.290Z,967.44
2018-02-22T10:51:49.274Z,967.42
2018-02-22T10:52:49.260Z,967.58
2018-02-22T10:53:49.240Z,967.44
2018-02-22T10:54:49.245Z,967.35
2018-02-22T10:55:49.197Z,967.38
2018-02-22T10:56:49.182Z,967.48
2018-02-22T10:57:49.166Z,967.40
2018-02-22T10:58:49.140Z,967.41
2018-02-22T10:59:49.122Z,967.37
2018-02-22T11:00:49.102Z,967.29
2018-02-22T11:01:49.085Z,967.39
2018-02-22T11:02:49.065Z,967.45
2018-02-22T11:03:49.044Z,967.41
2018-02-22T11:04:49.028Z,967.43
2018-02-22T11:05:49.007Z,967.40
2018-02-22T11:06:48.987Z,967.34
2018-02-22T11:07:48.976Z,967.40
2018-02-22T11:08:48.956Z,967.35
2018-02-22T11:09:48.932Z,967.43
2018-02-22T11:10:48.918Z,967.36
2018-02-22T11:11:48.898Z,967.49
2018-02-22T11:12:48.872Z,967.44
2018-02-22T11:13:48.863Z,967.39
2018-02-22T11:14:48.836Z,967.33
2018-02-22T11:15:48.816Z,967.25
2018-02-22T11:16:48.801Z,967.39
2018-02-22T11:17:48.779Z,967.39
2018-02-22T11:18:48.765Z,967.59
2018-02-22T11:19:48.754Z,967.62
2018-02-22T11:20:48.722Z,967.35
2018-02-22T11:21:48.705Z,967.34
2018-02-22T11:22:48.691Z,967.28
2018-02-22T11:23:48.668Z,967.36
2018-02-22T11:24:48.647Z,967.32
2018-02-22T11:25:48.628Z,967.31
2018-02-22T11:26:48.611Z,967.37
2018-02-22T11:27:48.595Z,967.47
2018-02-22T11:28:48.572Z,967.34
2018-02-22T11:29:48.551Z,967.45
2018-02-22T11:30:48.532Z,967.39
2018-02-22T11:31:48.515Z,967.33
2018-02-22T11:32:48.494Z,967.57
2018-02-22T11:33:48.475Z,967.34
2018-02-22T11:34:48.455Z,967.39
2018-02-22T11:35:48.436Z,967.36
2018-02-22T11:36:48.419Z,967.53
2018-02-22T11:37:48.400Z,967.37
2018-02-22T11:38:48.383Z,967.34
2018-02-22T11:39:48.420Z,967.32
2018-02-22T11:40:48.347Z,967.21
2018-02-22T11:41:48.328Z,967.27
2018-02-22T11:42:48.312Z,967.32
2018-02-22T11:43:48.291Z,967.26
2018-02-22T11:44:48.266Z,967.20
2018-02-22T11:45:48.248Z,967.29
2018-02-22T11:46:48.229Z,967.23
2018-02-22T11:47:48.209Z,967.18
2018-02-22T11:48:48.196Z,967.39
2018-02-22T11:49:48.178Z,967.14
2018-02-22T11:50:48.151Z,967.27
2018-02-22T11:51:48.152Z,967.31
2018-02-22T11:52:48.120Z,967.28
2018-02-22T11:53:48.095Z,967.24
2018-02-22T11:54:48.077Z,967.23
2018-02-22T11:55:48.065Z,967.30
2018-02-22T11:56:48.046Z,967.26
2018-02-22T11:57:48.028Z,967.24
2018-02-22T11:58:48.007Z,967.31
2018-02-22T11:59:47.980Z,967.28
2018-02-22T12:00:47.961Z,967.19
2018-02-22T12:01:47.943Z,967.28
2018-02-22T12:02:47.925Z,967.22
2018-02-22T12:03:47.912Z,967.16
2018-02-22T12:04:47.887Z,967.23
2018-02-22T12:05:47.867Z,967.17
2018-02-22T12:06:47.848Z,967.48
2018-02-22T12:07:47.836Z,967.26
2018-02-22T12:08:47.819Z,967.28
2018-02-22T12:09:47.791Z,967.31
2018-02-22T12:10:47.773Z,967.16
2018-02-22T12:11:47.755Z,967.14
2018-02-22T12:12:47.741Z,967.28
2018-02-22T12:13:47.723Z,967.19
2018-02-22T12:14:47.703Z,967.34
2018-02-22T12:15:47.684Z,967.20
2018-02-22T12:16:47.666Z,967.17
2018-02-22T12:17:47.643Z,967.09
2018-02-22T12:18:47.630Z,967.27
2018-02-22T12:19:47.608Z,967.28
2018-02-22T12:20:47.582Z,967.27
2018-02-22T12:21:47.571Z,967.14
2018-02-22T12:22:47.545Z,967.12
2018-02-22T12:23:47.530Z,967.11
2018-02-22T12:24:47.510Z,967.08
2018-02-22T12:25:47.494Z,967.17
2018-02-22T12:26:47.469Z,967.05
2018-02-22T12:27:47.451Z,967.14